Terminal Aerodrome Forecast
Issued by NWS St Louis, MO

Home | Current Version | Previous Version | Graphics & Text | Print | Product List | Glossary On
Versions: 1 2 3 4 5 6 7 8 9 10 11 12 13 14 15 16 17 18 19 20 21
000
FTUS43 KLSX 211100
TAFSTL
TAF
KSTL 211140Z 2112/2218 17005KT P6SM SKC
     FM211600 18009KT P6SM FEW045
     FM220100 15005KT P6SM SCT250
     FM221300 20009KT P6SM SCT100 BKN250=

USA.gov is the U.S. government's official web portal to all federal, state and local government web resources and services.